aviador You're here:

KGTB Decoded Metar

FORT DRUM in NY, USA
Report Time2017-12-18 02:56:00
UTC Time2017-12-18 03:20:31
Flight Rules vfr VFR
Wind140° at 07 kt
W.Decomp.*RWY 15: 7.0 kt HW 0.4 kt RCW
RWY 21: 3.8 kt HW 5.9 kt LCW
RWY 08: 2.0 kt HW 6.7 kt RCW
W.Rank140° ranks 3
Current wind is below 140° avg. (8.5)
Visibility9999 m
Phenomena:N/A
Clouds:Scattered 160 Hf
Expected CloudBase > 1,600 ft AGL from Temp-Dew spread
CeilingNone
Temp-12°C (ISA -26)
Dew Point-16°C (72% RH)
AAT-17.9°C
QNH1021 hPa
Density Alt-2,785 ft
Elevation679 ft
Report Wrong Elevation
Raw Report
KGTB 180256Z AUTO 14007KT 10SM SCT160 M12/M16 A3015 RMK AO2 SLP228
T11181164 57020 $=

Extra information for KGTB:More info

Metar Taf Metar & Taf Last 4 Metars F.Rules Stats Wind Profile Meteogram Temp Stats Airport Information Weather charts Add Link Nearby VenuesMetar ALERT Operation Metar Decoded Social comments

AIRNAV info for KGTB